sensor_id;sensor_type;location;lat;lon;timestamp;pressure;altitude;pressure_sealevel;temperature;humidity
74975;BME280;68459;50.836;19.138;2023-06-04T00:01:28;99112.16;;;8.79;47.79
74975;BME280;68459;50.836;19.138;2023-06-04T00:04:32;99123.09;;;8.71;48.54
74975;BME280;68459;50.836;19.138;2023-06-04T00:07:37;99114.56;;;8.61;48.86
74975;BME280;68459;50.836;19.138;2023-06-04T00:10:41;99112.44;;;8.49;48.78
74975;BME280;68459;50.836;19.138;2023-06-04T00:13:45;99115.06;;;8.36;48.91
74975;BME280;68459;50.836;19.138;2023-06-04T00:16:49;99115.19;;;8.28;48.87
74975;BME280;68459;50.836;19.138;2023-06-04T00:19:53;99115.59;;;8.25;49.81
74975;BME280;68459;50.836;19.138;2023-06-04T00:22:58;99108.94;;;8.21;49.72
74975;BME280;68459;50.836;19.138;2023-06-04T00:26:03;99104.34;;;8.15;50.03
74975;BME280;68459;50.836;19.138;2023-06-04T00:29:07;99097.50;;;8.12;50.02
74975;BME280;68459;50.836;19.138;2023-06-04T00:32:11;99105.34;;;8.07;50.11
74975;BME280;68459;50.836;19.138;2023-06-04T00:35:15;99102.38;;;7.96;50.10
74975;BME280;68459;50.836;19.138;2023-06-04T00:38:20;99095.28;;;7.88;50.64
74975;BME280;68459;50.836;19.138;2023-06-04T00:41:24;99095.88;;;7.83;50.49
74975;BME280;68459;50.836;19.138;2023-06-04T00:44:28;99091.72;;;7.81;50.66
74975;BME280;68459;50.836;19.138;2023-06-04T00:47:33;99099.97;;;7.79;50.78
74975;BME280;68459;50.836;19.138;2023-06-04T00:50:37;99085.91;;;7.77;51.04
74975;BME280;68459;50.836;19.138;2023-06-04T00:53:43;99090.00;;;7.73;51.68
74975;BME280;68459;50.836;19.138;2023-06-04T00:56:48;99089.16;;;7.73;51.25
74975;BME280;68459;50.836;19.138;2023-06-04T00:59:52;99082.41;;;7.77;51.07
74975;BME280;68459;50.836;19.138;2023-06-04T01:02:57;99083.69;;;7.81;50.89
74975;BME280;68459;50.836;19.138;2023-06-04T01:06:13;99084.94;;;7.85;51.84
74975;BME280;68459;50.836;19.138;2023-06-04T01:09:26;99092.59;;;7.88;51.09
74975;BME280;68459;50.836;19.138;2023-06-04T01:12:30;99088.47;;;7.85;51.04
74975;BME280;68459;50.836;19.138;2023-06-04T01:15:34;99089.69;;;7.83;51.18
74975;BME280;68459;50.836;19.138;2023-06-04T01:18:38;99089.03;;;7.81;51.67
74975;BME280;68459;50.836;19.138;2023-06-04T01:21:44;99092.75;;;7.80;50.89
74975;BME280;68459;50.836;19.138;2023-06-04T01:24:56;99094.59;;;7.79;51.82
74975;BME280;68459;50.836;19.138;2023-06-04T01:28:06;99083.88;;;7.79;51.83
74975;BME280;68459;50.836;19.138;2023-06-04T01:31:13;99090.25;;;7.78;52.20
74975;BME280;68459;50.836;19.138;2023-06-04T01:34:17;99092.94;;;7.78;51.67
74975;BME280;68459;50.836;19.138;2023-06-04T01:37:21;99087.19;;;7.81;51.63
74975;BME280;68459;50.836;19.138;2023-06-04T01:40:27;99088.03;;;7.82;51.55
74975;BME280;68459;50.836;19.138;2023-06-04T01:43:31;99087.38;;;7.80;52.28
74975;BME280;68459;50.836;19.138;2023-06-04T01:46:37;99090.25;;;7.78;51.86
74975;BME280;68459;50.836;19.138;2023-06-04T01:49:42;99086.94;;;7.76;52.26
74975;BME280;68459;50.836;19.138;2023-06-04T01:52:46;99089.22;;;7.79;52.00
74975;BME280;68459;50.836;19.138;2023-06-04T01:55:51;99093.41;;;7.82;52.16
74975;BME280;68459;50.836;19.138;2023-06-04T01:58:55;99091.34;;;7.84;52.30
74975;BME280;68459;50.836;19.138;2023-06-04T02:01:59;99086.81;;;7.84;52.50
74975;BME280;68459;50.836;19.138;2023-06-04T02:05:05;99090.94;;;7.87;52.54
74975;BME280;68459;50.836;19.138;2023-06-04T02:08:09;99088.47;;;7.85;52.12
74975;BME280;68459;50.836;19.138;2023-06-04T02:11:15;99080.00;;;7.88;52.41
74975;BME280;68459;50.836;19.138;2023-06-04T02:14:19;99079.41;;;7.93;52.08
74975;BME280;68459;50.836;19.138;2023-06-04T02:17:23;99079.03;;;7.96;52.07
74975;BME280;68459;50.836;19.138;2023-06-04T02:20:27;99084.22;;;7.98;52.60
74975;BME280;68459;50.836;19.138;2023-06-04T02:23:32;99079.44;;;8.00;52.50
74975;BME280;68459;50.836;19.138;2023-06-04T02:26:37;99082.13;;;8.00;52.90
74975;BME280;68459;50.836;19.138;2023-06-04T02:29:41;99075.75;;;8.01;53.04
74975;BME280;68459;50.836;19.138;2023-06-04T02:32:45;99082.78;;;8.02;52.25
74975;BME280;68459;50.836;19.138;2023-06-04T02:35:54;99085.47;;;8.02;52.29
74975;BME280;68459;50.836;19.138;2023-06-04T02:38:58;99081.94;;;8.01;52.77
74975;BME280;68459;50.836;19.138;2023-06-04T02:42:05;99077.00;;;8.05;53.07
74975;BME280;68459;50.836;19.138;2023-06-04T02:45:11;99076.00;;;8.06;52.68
74975;BME280;68459;50.836;19.138;2023-06-04T02:48:15;99079.50;;;8.06;52.07
74975;BME280;68459;50.836;19.138;2023-06-04T02:51:18;99077.66;;;8.07;52.79
74975;BME280;68459;50.836;19.138;2023-06-04T02:54:22;99081.16;;;8.07;52.99
74975;BME280;68459;50.836;19.138;2023-06-04T02:57:27;99078.47;;;8.07;52.94
74975;BME280;68459;50.836;19.138;2023-06-04T03:00:31;99083.66;;;8.09;52.16
74975;BME280;68459;50.836;19.138;2023-06-04T03:03:35;99087.81;;;8.11;52.33
74975;BME280;68459;50.836;19.138;2023-06-04T03:06:39;99080.81;;;8.17;52.72
74975;BME280;68459;50.836;19.138;2023-06-04T03:09:47;99085.75;;;8.13;52.89
74975;BME280;68459;50.836;19.138;2023-06-04T03:12:52;99084.91;;;8.13;53.12
74975;BME280;68459;50.836;19.138;2023-06-04T03:15:56;99079.53;;;8.13;52.66
74975;BME280;68459;50.836;19.138;2023-06-04T03:19:04;99087.19;;;8.16;52.52
74975;BME280;68459;50.836;19.138;2023-06-04T03:22:08;99092.56;;;8.16;53.02
74975;BME280;68459;50.836;19.138;2023-06-04T03:25:13;99084.31;;;8.17;53.21
74975;BME280;68459;50.836;19.138;2023-06-04T03:28:18;99087.66;;;8.19;53.52
74975;BME280;68459;50.836;19.138;2023-06-04T03:31:22;99084.38;;;8.24;52.66
74975;BME280;68459;50.836;19.138;2023-06-04T03:34:26;99084.97;;;8.19;52.73
74975;BME280;68459;50.836;19.138;2023-06-04T03:37:36;99086.63;;;8.20;52.92
74975;BME280;68459;50.836;19.138;2023-06-04T03:40:40;99076.31;;;8.24;53.49
74975;BME280;68459;50.836;19.138;2023-06-04T03:43:46;99077.56;;;8.28;53.44
74975;BME280;68459;50.836;19.138;2023-06-04T03:46:51;99089.59;;;8.32;53.30
74975;BME280;68459;50.836;19.138;2023-06-04T03:49:55;99094.81;;;8.40;53.12
74975;BME280;68459;50.836;19.138;2023-06-04T03:52:59;99091.34;;;8.46;53.44
74975;BME280;68459;50.836;19.138;2023-06-04T03:56:05;99099.84;;;8.56;53.51
74975;BME280;68459;50.836;19.138;2023-06-04T03:59:10;99097.44;;;8.68;53.21
74975;BME280;68459;50.836;19.138;2023-06-04T04:02:14;99090.63;;;8.79;53.11
74975;BME280;68459;50.836;19.138;2023-06-04T04:05:19;99097.31;;;8.89;52.97
74975;BME280;68459;50.836;19.138;2023-06-04T04:08:24;99094.66;;;9.03;53.17
74975;BME280;68459;50.836;19.138;2023-06-04T04:11:33;99097.78;;;9.13;52.97
74975;BME280;68459;50.836;19.138;2023-06-04T04:14:40;99105.91;;;9.26;52.30
74975;BME280;68459;50.836;19.138;2023-06-04T04:17:43;99100.31;;;9.34;52.83
74975;BME280;68459;50.836;19.138;2023-06-04T04:20:47;99093.28;;;9.40;52.50
74975;BME280;68459;50.836;19.138;2023-06-04T04:23:51;99100.75;;;9.44;52.36
74975;BME280;68459;50.836;19.138;2023-06-04T04:26:56;99102.41;;;9.52;52.25
74975;BME280;68459;50.836;19.138;2023-06-04T04:30:03;99104.88;;;9.60;52.56
74975;BME280;68459;50.836;19.138;2023-06-04T04:33:08;99100.97;;;9.69;52.39
74975;BME280;68459;50.836;19.138;2023-06-04T04:36:18;99099.94;;;9.77;51.96
74975;BME280;68459;50.836;19.138;2023-06-04T04:39:26;99097.84;;;9.85;51.93
74975;BME280;68459;50.836;19.138;2023-06-04T04:42:32;99095.78;;;9.94;52.25
74975;BME280;68459;50.836;19.138;2023-06-04T04:45:39;99089.97;;;10.04;52.39
74975;BME280;68459;50.836;19.138;2023-06-04T04:48:45;99094.09;;;10.13;52.15
74975;BME280;68459;50.836;19.138;2023-06-04T04:51:49;99098.66;;;10.25;51.32
74975;BME280;68459;50.836;19.138;2023-06-04T04:54:53;99098.66;;;10.39;51.41
74975;BME280;68459;50.836;19.138;2023-06-04T04:58:02;99090.31;;;10.47;51.33
74975;BME280;68459;50.836;19.138;2023-06-04T05:01:08;99099.81;;;10.56;50.99
74975;BME280;68459;50.836;19.138;2023-06-04T05:04:14;99088.16;;;10.68;51.68
74975;BME280;68459;50.836;19.138;2023-06-04T05:07:18;99089.81;;;10.76;51.52
74975;BME280;68459;50.836;19.138;2023-06-04T05:10:24;99096.38;;;10.87;50.91
74975;BME280;68459;50.836;19.138;2023-06-04T05:13:28;99100.06;;;10.99;50.98
74975;BME280;68459;50.836;19.138;2023-06-04T05:16:38;99098.38;;;11.04;50.31
74975;BME280;68459;50.836;19.138;2023-06-04T05:19:45;99101.66;;;11.13;51.35
74975;BME280;68459;50.836;19.138;2023-06-04T05:22:49;99106.75;;;11.28;51.32
74975;BME280;68459;50.836;19.138;2023-06-04T05:25:54;99104.41;;;11.38;50.90
74975;BME280;68459;50.836;19.138;2023-06-04T05:28:58;99101.22;;;11.48;50.52
74975;BME280;68459;50.836;19.138;2023-06-04T05:32:08;99098.88;;;11.58;49.75
74975;BME280;68459;50.836;19.138;2023-06-04T05:35:14;99106.28;;;11.69;49.62
74975;BME280;68459;50.836;19.138;2023-06-04T05:38:18;99107.25;;;11.81;50.08
74975;BME280;68459;50.836;19.138;2023-06-04T05:41:23;99101.13;;;11.92;50.24
74975;BME280;68459;50.836;19.138;2023-06-04T05:44:28;99104.31;;;12.07;50.28
74975;BME280;68459;50.836;19.138;2023-06-04T05:47:34;99111.47;;;12.20;50.22
74975;BME280;68459;50.836;19.138;2023-06-04T05:50:39;99108.63;;;12.33;49.17
74975;BME280;68459;50.836;19.138;2023-06-04T05:53:43;99113.53;;;12.43;49.38
74975;BME280;68459;50.836;19.138;2023-06-04T05:56:47;99114.66;;;12.54;49.12
74975;BME280;68459;50.836;19.138;2023-06-04T05:59:51;99118.94;;;12.61;49.23
74975;BME280;68459;50.836;19.138;2023-06-04T06:02:56;99111.34;;;12.70;49.24
74975;BME280;68459;50.836;19.138;2023-06-04T06:06:14;99106.44;;;12.78;49.50
74975;BME280;68459;50.836;19.138;2023-06-04T06:09:18;99115.94;;;12.88;48.64
74975;BME280;68459;50.836;19.138;2023-06-04T06:12:23;99107.50;;;12.96;49.18
74975;BME280;68459;50.836;19.138;2023-06-04T06:15:27;99109.91;;;13.04;48.89
74975;BME280;68459;50.836;19.138;2023-06-04T06:18:34;99120.19;;;13.13;48.14
74975;BME280;68459;50.836;19.138;2023-06-04T06:21:38;99110.94;;;13.21;48.15
74975;BME280;68459;50.836;19.138;2023-06-04T06:24:42;99112.03;;;13.32;47.90
74975;BME280;68459;50.836;19.138;2023-06-04T06:27:46;99118.78;;;13.41;47.89
74975;BME280;68459;50.836;19.138;2023-06-04T06:30:52;99122.59;;;13.51;47.94
74975;BME280;68459;50.836;19.138;2023-06-04T06:33:57;99122.84;;;13.62;47.51
74975;BME280;68459;50.836;19.138;2023-06-04T06:37:01;99116.63;;;13.73;47.71
74975;BME280;68459;50.836;19.138;2023-06-04T06:40:06;99113.97;;;13.84;47.88
74975;BME280;68459;50.836;19.138;2023-06-04T06:43:10;99122.94;;;13.97;47.19
74975;BME280;68459;50.836;19.138;2023-06-04T06:46:14;99123.28;;;14.12;47.08
74975;BME280;68459;50.836;19.138;2023-06-04T06:49:19;99126.25;;;14.22;47.05
74975;BME280;68459;50.836;19.138;2023-06-04T06:52:23;99115.88;;;14.31;47.00
74975;BME280;68459;50.836;19.138;2023-06-04T06:55:27;99128.88;;;14.40;46.62
74975;BME280;68459;50.836;19.138;2023-06-04T06:58:31;99127.78;;;14.53;46.48
74975;BME280;68459;50.836;19.138;2023-06-04T07:01:35;99127.53;;;14.66;46.40
74975;BME280;68459;50.836;19.138;2023-06-04T07:04:40;99127.19;;;14.74;46.14
74975;BME280;68459;50.836;19.138;2023-06-04T07:07:44;99125.75;;;14.83;45.90
74975;BME280;68459;50.836;19.138;2023-06-04T07:10:48;99132.44;;;14.92;45.91
74975;BME280;68459;50.836;19.138;2023-06-04T07:13:52;99129.13;;;15.02;45.58
74975;BME280;68459;50.836;19.138;2023-06-04T07:16:56;99130.16;;;15.13;45.45
74975;BME280;68459;50.836;19.138;2023-06-04T07:20:01;99133.06;;;15.23;45.13
74975;BME280;68459;50.836;19.138;2023-06-04T07:23:08;99134.91;;;15.34;44.63
74975;BME280;68459;50.836;19.138;2023-06-04T07:26:12;99130.25;;;15.46;44.67
74975;BME280;68459;50.836;19.138;2023-06-04T07:29:16;99131.31;;;15.57;44.16
74975;BME280;68459;50.836;19.138;2023-06-04T07:32:20;99130.09;;;15.64;43.84
74975;BME280;68459;50.836;19.138;2023-06-04T07:35:25;99129.66;;;15.73;43.67
74975;BME280;68459;50.836;19.138;2023-06-04T07:38:29;99131.19;;;15.80;43.14
74975;BME280;68459;50.836;19.138;2023-06-04T07:41:34;99128.88;;;15.89;42.75
74975;BME280;68459;50.836;19.138;2023-06-04T07:44:38;99130.94;;;15.98;42.23
74975;BME280;68459;50.836;19.138;2023-06-04T07:47:42;99128.31;;;16.03;41.95
74975;BME280;68459;50.836;19.138;2023-06-04T07:50:48;99132.44;;;16.06;42.08
74975;BME280;68459;50.836;19.138;2023-06-04T07:53:52;99128.69;;;16.12;41.98
74975;BME280;68459;50.836;19.138;2023-06-04T07:56:56;99126.06;;;16.17;41.31
74975;BME280;68459;50.836;19.138;2023-06-04T08:00:00;99122.38;;;16.23;41.69
74975;BME280;68459;50.836;19.138;2023-06-04T08:03:12;99127.38;;;16.31;41.42
74975;BME280;68459;50.836;19.138;2023-06-04T08:06:18;99128.84;;;16.39;41.51
74975;BME280;68459;50.836;19.138;2023-06-04T08:09:22;99125.22;;;16.50;40.83
74975;BME280;68459;50.836;19.138;2023-06-04T08:12:26;99129.97;;;16.60;40.71
74975;BME280;68459;50.836;19.138;2023-06-04T08:15:30;99121.41;;;16.68;40.80
74975;BME280;68459;50.836;19.138;2023-06-04T08:18:37;99128.00;;;16.72;40.43
74975;BME280;68459;50.836;19.138;2023-06-04T08:21:43;99131.63;;;16.78;39.96
74975;BME280;68459;50.836;19.138;2023-06-04T08:24:47;99140.44;;;16.85;39.82
74975;BME280;68459;50.836;19.138;2023-06-04T08:27:50;99133.78;;;16.97;39.45
74975;BME280;68459;50.836;19.138;2023-06-04T08:30:55;99127.88;;;17.05;39.65
74975;BME280;68459;50.836;19.138;2023-06-04T08:33:59;99133.47;;;17.16;39.24
74975;BME280;68459;50.836;19.138;2023-06-04T08:37:04;99129.47;;;17.23;39.28
74975;BME280;68459;50.836;19.138;2023-06-04T08:40:09;99123.25;;;17.28;39.09
74975;BME280;68459;50.836;19.138;2023-06-04T08:43:15;99135.28;;;17.32;38.27
74975;BME280;68459;50.836;19.138;2023-06-04T08:46:19;99131.53;;;17.38;39.11
74975;BME280;68459;50.836;19.138;2023-06-04T08:49:25;99128.91;;;17.48;38.41
74975;BME280;68459;50.836;19.138;2023-06-04T08:52:34;99131.03;;;17.41;38.50
74975;BME280;68459;50.836;19.138;2023-06-04T08:55:39;99132.69;;;17.42;38.50
74975;BME280;68459;50.836;19.138;2023-06-04T08:58:44;99137.47;;;17.57;38.23
74975;BME280;68459;50.836;19.138;2023-06-04T09:01:53;99137.84;;;17.65;38.06
74975;BME280;68459;50.836;19.138;2023-06-04T09:04:59;99135.22;;;17.75;37.62
74975;BME280;68459;50.836;19.138;2023-06-04T09:08:07;99133.13;;;17.83;37.66
74975;BME280;68459;50.836;19.138;2023-06-04T09:11:14;99143.56;;;17.91;37.28
74975;BME280;68459;50.836;19.138;2023-06-04T09:14:20;99146.34;;;18.01;37.05
74975;BME280;68459;50.836;19.138;2023-06-04T09:17:24;99155.75;;;18.10;37.32
74975;BME280;68459;50.836;19.138;2023-06-04T09:20:28;99142.69;;;18.17;37.37
74975;BME280;68459;50.836;19.138;2023-06-04T09:23:36;99134.81;;;18.26;36.98
74975;BME280;68459;50.836;19.138;2023-06-04T09:26:47;99149.09;;;18.33;36.58
74975;BME280;68459;50.836;19.138;2023-06-04T09:29:53;99143.88;;;18.31;36.47
74975;BME280;68459;50.836;19.138;2023-06-04T09:33:06;99139.00;;;18.33;36.03
74975;BME280;68459;50.836;19.138;2023-06-04T09:36:10;99141.94;;;18.27;35.95
74975;BME280;68459;50.836;19.138;2023-06-04T09:39:16;99144.25;;;18.45;35.28
74975;BME280;68459;50.836;19.138;2023-06-04T09:42:21;99140.56;;;18.61;35.74
74975;BME280;68459;50.836;19.138;2023-06-04T09:45:29;99141.19;;;18.78;35.54
74975;BME280;68459;50.836;19.138;2023-06-04T09:48:34;99132.81;;;18.90;35.16
74975;BME280;68459;50.836;19.138;2023-06-04T09:51:46;99128.44;;;18.94;34.87
74975;BME280;68459;50.836;19.138;2023-06-04T09:54:53;99133.94;;;18.99;34.94
74975;BME280;68459;50.836;19.138;2023-06-04T09:57:58;99136.72;;;19.09;34.39
74975;BME280;68459;50.836;19.138;2023-06-04T10:01:04;99131.78;;;19.01;34.30
74975;BME280;68459;50.836;19.138;2023-06-04T10:04:09;99136.97;;;19.03;34.90
74975;BME280;68459;50.836;19.138;2023-06-04T10:07:14;99137.25;;;19.06;34.47
74975;BME280;68459;50.836;19.138;2023-06-04T10:10:21;99127.69;;;19.04;34.84
74975;BME280;68459;50.836;19.138;2023-06-04T10:13:31;99121.72;;;19.17;34.92
74975;BME280;68459;50.836;19.138;2023-06-04T10:16:42;99115.44;;;19.32;34.65
74975;BME280;68459;50.836;19.138;2023-06-04T10:19:49;99123.69;;;19.47;34.53
74975;BME280;68459;50.836;19.138;2023-06-04T10:22:54;99108.69;;;19.60;34.31
74975;BME280;68459;50.836;19.138;2023-06-04T10:26:00;99121.06;;;19.77;34.70
74975;BME280;68459;50.836;19.138;2023-06-04T10:29:06;99113.66;;;19.98;34.01
74975;BME280;68459;50.836;19.138;2023-06-04T10:32:10;99125.47;;;20.19;34.44
74975;BME280;68459;50.836;19.138;2023-06-04T10:35:14;99126.28;;;20.45;33.75
74975;BME280;68459;50.836;19.138;2023-06-04T10:38:18;99125.97;;;20.51;33.61
74975;BME280;68459;50.836;19.138;2023-06-04T10:41:25;99125.16;;;20.56;33.53
74975;BME280;68459;50.836;19.138;2023-06-04T10:44:29;99122.66;;;20.64;33.42
74975;BME280;68459;50.836;19.138;2023-06-04T10:47:34;99126.47;;;20.79;33.25
74975;BME280;68459;50.836;19.138;2023-06-04T10:50:50;99130.34;;;20.68;32.66
74975;BME280;68459;50.836;19.138;2023-06-04T10:53:55;99118.59;;;20.57;32.49
74975;BME280;68459;50.836;19.138;2023-06-04T10:57:10;99122.13;;;20.68;32.11
74975;BME280;68459;50.836;19.138;2023-06-04T11:00:15;99123.72;;;20.84;31.98
74975;BME280;68459;50.836;19.138;2023-06-04T11:03:20;99119.28;;;20.98;31.67
74975;BME280;68459;50.836;19.138;2023-06-04T11:06:24;99123.91;;;21.08;31.80
74975;BME280;68459;50.836;19.138;2023-06-04T11:09:30;99122.78;;;21.24;31.50
74975;BME280;68459;50.836;19.138;2023-06-04T11:12:42;99117.16;;;21.44;31.72
74975;BME280;68459;50.836;19.138;2023-06-04T11:15:47;99115.34;;;21.74;31.26
74975;BME280;68459;50.836;19.138;2023-06-04T11:18:54;99106.25;;;21.78;30.95
74975;BME280;68459;50.836;19.138;2023-06-04T11:21:59;99119.31;;;21.96;30.98
74975;BME280;68459;50.836;19.138;2023-06-04T11:25:03;99126.75;;;22.25;30.27
74975;BME280;68459;50.836;19.138;2023-06-04T11:28:14;99122.31;;;22.34;29.76
74975;BME280;68459;50.836;19.138;2023-06-04T11:31:19;99119.00;;;22.37;30.01
74975;BME280;68459;50.836;19.138;2023-06-04T11:34:23;99122.88;;;22.60;29.83
74975;BME280;68459;50.836;19.138;2023-06-04T11:37:28;99110.22;;;22.88;30.06
74975;BME280;68459;50.836;19.138;2023-06-04T11:40:35;99114.06;;;23.10;29.59
74975;BME280;68459;50.836;19.138;2023-06-04T11:43:40;99109.81;;;23.18;29.07
74975;BME280;68459;50.836;19.138;2023-06-04T11:46:50;99103.22;;;23.19;28.84
74975;BME280;68459;50.836;19.138;2023-06-04T11:49:56;99099.94;;;23.17;28.94
74975;BME280;68459;50.836;19.138;2023-06-04T11:53:00;99096.41;;;23.35;28.75
74975;BME280;68459;50.836;19.138;2023-06-04T11:56:05;99098.59;;;23.57;28.84
74975;BME280;68459;50.836;19.138;2023-06-04T11:59:11;99091.91;;;23.63;28.69
74975;BME280;68459;50.836;19.138;2023-06-04T12:02:16;99096.50;;;23.68;28.30
74975;BME280;68459;50.836;19.138;2023-06-04T12:05:29;99097.78;;;23.57;27.19
74975;BME280;68459;50.836;19.138;2023-06-04T12:08:44;99100.84;;;23.55;28.27
74975;BME280;68459;50.836;19.138;2023-06-04T12:11:49;99099.28;;;23.68;28.27
74975;BME280;68459;50.836;19.138;2023-06-04T12:14:58;99098.19;;;24.01;28.20
74975;BME280;68459;50.836;19.138;2023-06-04T12:18:02;99092.88;;;24.37;28.29
74975;BME280;68459;50.836;19.138;2023-06-04T12:21:17;99092.34;;;24.81;27.76
74975;BME280;68459;50.836;19.138;2023-06-04T12:24:22;99094.44;;;25.03;27.60
74975;BME280;68459;50.836;19.138;2023-06-04T12:27:26;99100.63;;;25.23;27.04
74975;BME280;68459;50.836;19.138;2023-06-04T12:30:37;99094.38;;;25.17;26.41
74975;BME280;68459;50.836;19.138;2023-06-04T12:33:42;99096.53;;;25.20;27.16
74975;BME280;68459;50.836;19.138;2023-06-04T12:36:46;99092.44;;;25.17;26.83
74975;BME280;68459;50.836;19.138;2023-06-04T12:39:50;99091.22;;;25.10;26.82
74975;BME280;68459;50.836;19.138;2023-06-04T12:42:54;99094.72;;;25.15;26.84
74975;BME280;68459;50.836;19.138;2023-06-04T12:45:59;99101.81;;;25.44;26.73
74975;BME280;68459;50.836;19.138;2023-06-04T12:49:03;99092.47;;;25.67;26.47
74975;BME280;68459;50.836;19.138;2023-06-04T12:52:07;99095.75;;;25.69;25.85
74975;BME280;68459;50.836;19.138;2023-06-04T12:55:12;99085.78;;;25.82;25.73
74975;BME280;68459;50.836;19.138;2023-06-04T12:58:16;99084.91;;;25.95;25.47
74975;BME280;68459;50.836;19.138;2023-06-04T13:01:22;99094.63;;;26.37;25.52
74975;BME280;68459;50.836;19.138;2023-06-04T13:04:29;99087.97;;;27.17;24.38
74975;BME280;68459;50.836;19.138;2023-06-04T13:07:33;99087.97;;;29.31;22.92
74975;BME280;68459;50.836;19.138;2023-06-04T13:10:36;99094.44;;;32.69;19.97
74975;BME280;68459;50.836;19.138;2023-06-04T13:13:40;99092.75;;;35.27;18.39
74975;BME280;68459;50.836;19.138;2023-06-04T13:16:46;99104.63;;;37.66;16.73
74975;BME280;68459;50.836;19.138;2023-06-04T13:19:51;99097.00;;;39.17;15.62
74975;BME280;68459;50.836;19.138;2023-06-04T13:22:55;99097.53;;;40.93;14.82
74975;BME280;68459;50.836;19.138;2023-06-04T13:25:58;99105.22;;;42.74;13.83
74975;BME280;68459;50.836;19.138;2023-06-04T13:29:03;99106.13;;;44.07;13.05
74975;BME280;68459;50.836;19.138;2023-06-04T13:32:08;99110.22;;;44.78;12.06
74975;BME280;68459;50.836;19.138;2023-06-04T13:35:12;99105.59;;;45.49;12.23
74975;BME280;68459;50.836;19.138;2023-06-04T13:38:16;99101.84;;;46.10;11.87
74975;BME280;68459;50.836;19.138;2023-06-04T13:41:20;99108.91;;;46.60;11.32
74975;BME280;68459;50.836;19.138;2023-06-04T13:44:25;99108.44;;;47.25;10.96
74975;BME280;68459;50.836;19.138;2023-06-04T13:47:32;99104.34;;;48.04;10.68
74975;BME280;68459;50.836;19.138;2023-06-04T13:50:35;99100.25;;;48.58;9.94
74975;BME280;68459;50.836;19.138;2023-06-04T13:53:39;99089.16;;;48.78;10.53
74975;BME280;68459;50.836;19.138;2023-06-04T13:56:44;99099.81;;;49.17;9.62
74975;BME280;68459;50.836;19.138;2023-06-04T13:59:48;99099.31;;;49.10;9.44
74975;BME280;68459;50.836;19.138;2023-06-04T14:02:54;99087.66;;;48.95;9.80
74975;BME280;68459;50.836;19.138;2023-06-04T14:05:58;99092.91;;;48.87;9.44
74975;BME280;68459;50.836;19.138;2023-06-04T14:09:03;99088.22;;;48.72;9.66
74975;BME280;68459;50.836;19.138;2023-06-04T14:12:08;99085.19;;;48.44;9.86
74975;BME280;68459;50.836;19.138;2023-06-04T14:15:12;99077.47;;;48.94;9.57
74975;BME280;68459;50.836;19.138;2023-06-04T14:18:17;99080.66;;;49.05;9.78
74975;BME280;68459;50.836;19.138;2023-06-04T14:21:21;99073.84;;;49.12;9.63
74975;BME280;68459;50.836;19.138;2023-06-04T14:24:25;99073.00;;;49.02;9.41
74975;BME280;68459;50.836;19.138;2023-06-04T14:27:29;99071.97;;;48.78;9.23
74975;BME280;68459;50.836;19.138;2023-06-04T14:30:32;99062.41;;;48.72;9.59
74975;BME280;68459;50.836;19.138;2023-06-04T14:33:38;99064.41;;;48.84;9.83
74975;BME280;68459;50.836;19.138;2023-06-04T14:36:42;99060.41;;;48.81;9.67
74975;BME280;68459;50.836;19.138;2023-06-04T14:39:46;99057.88;;;48.93;8.98
74975;BME280;68459;50.836;19.138;2023-06-04T14:42:49;99051.69;;;48.54;9.49
74975;BME280;68459;50.836;19.138;2023-06-04T14:45:54;99046.84;;;48.42;9.40
74975;BME280;68459;50.836;19.138;2023-06-04T14:48:59;99050.75;;;48.26;9.58
74975;BME280;68459;50.836;19.138;2023-06-04T14:52:04;99046.66;;;48.36;9.26
74975;BME280;68459;50.836;19.138;2023-06-04T14:55:08;99047.84;;;48.48;8.98
74975;BME280;68459;50.836;19.138;2023-06-04T14:58:13;99044.97;;;48.48;8.89
74975;BME280;68459;50.836;19.138;2023-06-04T15:01:18;99037.88;;;48.62;8.85
74975;BME280;68459;50.836;19.138;2023-06-04T15:04:28;99043.19;;;48.41;8.87
74975;BME280;68459;50.836;19.138;2023-06-04T15:07:31;99035.22;;;47.83;8.70
74975;BME280;68459;50.836;19.138;2023-06-04T15:10:35;99034.22;;;47.56;9.53
74975;BME280;68459;50.836;19.138;2023-06-04T15:13:39;99038.88;;;47.62;9.05
74975;BME280;68459;50.836;19.138;2023-06-04T15:16:46;99032.09;;;47.47;8.92
74975;BME280;68459;50.836;19.138;2023-06-04T15:19:54;99034.75;;;47.29;9.01
74975;BME280;68459;50.836;19.138;2023-06-04T15:22:58;99027.97;;;47.13;8.99
74975;BME280;68459;50.836;19.138;2023-06-04T15:26:02;99031.94;;;46.69;9.03
74975;BME280;68459;50.836;19.138;2023-06-04T15:29:06;99025.31;;;46.46;9.33
74975;BME280;68459;50.836;19.138;2023-06-04T15:32:10;99025.53;;;46.39;9.14
74975;BME280;68459;50.836;19.138;2023-06-04T15:35:15;99019.03;;;45.85;9.44
74975;BME280;68459;50.836;19.138;2023-06-04T15:38:19;99020.59;;;45.44;9.19
74975;BME280;68459;50.836;19.138;2023-06-04T15:41:23;99010.97;;;45.09;9.93
74975;BME280;68459;50.836;19.138;2023-06-04T15:44:27;99005.47;;;45.02;9.82
74975;BME280;68459;50.836;19.138;2023-06-04T15:47:31;99004.66;;;45.01;9.92
74975;BME280;68459;50.836;19.138;2023-06-04T15:50:36;99009.47;;;45.04;9.23
74975;BME280;68459;50.836;19.138;2023-06-04T15:53:40;99009.41;;;44.75;9.35
74975;BME280;68459;50.836;19.138;2023-06-04T15:56:44;99005.72;;;44.75;9.62
74975;BME280;68459;50.836;19.138;2023-06-04T15:59:48;99006.13;;;44.77;9.24
74975;BME280;68459;50.836;19.138;2023-06-04T16:02:52;99002.34;;;44.31;9.88
74975;BME280;68459;50.836;19.138;2023-06-04T16:05:57;99002.19;;;43.83;10.03
74975;BME280;68459;50.836;19.138;2023-06-04T16:09:02;98999.88;;;43.38;9.76
74975;BME280;68459;50.836;19.138;2023-06-04T16:12:06;99005.88;;;42.74;10.17
74975;BME280;68459;50.836;19.138;2023-06-04T16:15:10;98997.72;;;42.76;10.32